Bookmark and Share
Track history (hours):
 

Sanko Sincere

Last reported at 2014-Feb-19 16:20 UTC. Time now 2014-Apr-24 00:18 UTC.
Position N 20°01' W 106°58'.
Warning: this ship's position is months out of date.

Length 194 m; draft 7.3 m.

Type: Ship (hazmat cat C). MMSI: 431211000.

NotesDate/timePositionNaut miles runAvg speedWind from/ knotsBaromVisibWave heightAir tempDewpointWater temp
2014-Feb-19 16:20N 20°01' W 106°58'1012.3
2014-Feb-19 15:33N 20°07' W 107°06'1312.4
2014-Feb-19 14:32N 20°14' W 107°17'1212.5
2014-Feb-19 13:32N 20°22' W 107°28'3012.9
2014-Feb-19 11:10N 20°40' W 107°54'  
2014-Feb-16 21:29N 27°58' W 120°08'3712.8
2014-Feb-16 18:33N 28°17' W 120°45'1512.6
2014-Feb-16 17:20N 28°24' W 121°00'1012.7
2014-Feb-16 16:33N 28°29' W 121°10'1413.1
2014-Feb-16 15:28N 28°36' W 121°24'1312.7
2014-Feb-16 14:26N 28°43' W 121°37'1112.4
2014-Feb-16 13:32N 28°48' W 121°48'1212.4
2014-Feb-16 12:33N 28°54' W 122°00'1212.6
2014-Feb-16 11:33N 28°60' W 122°13'1312.7
2014-Feb-16 10:33N 29°06' W 122°26'1412.7
2014-Feb-16 09:28N 29°13' W 122°39'3712.6
2014-Feb-16 06:31N 29°31' W 123°17'1212.3
2014-Feb-16 05:33N 29°37' W 123°28'1212.2
2014-Feb-16 04:33N 29°43' W 123°41'1212.5
2014-Feb-16 03:33N 29°49' W 123°53'1212.5
2014-Feb-16 02:33N 29°55' W 124°06'2612.4
2014-Feb-16 00:29N 30°08' W 124°31'1212.7
2014-Feb-15 23:33N 30°14' W 124°43'3812.7
2014-Feb-15 20:32N 30°32' W 125°22'3912.8
2014-Feb-15 17:30N 30°49' W 126°03'1213.0
2014-Feb-15 16:33N 30°55' W 126°16'1312.7
2014-Feb-15 15:33N 31°01' W 126°29'1312.4
2014-Feb-15 14:33N 31°07' W 126°42'1512.4
2014-Feb-15 13:19N 31°13' W 126°58'2212.4
2014-Feb-15 11:33N 31°23' W 127°21'5012.4
2014-Feb-15 07:32N 31°45' W 128°13'7612.6
2014-Feb-15 01:29N 32°20' W 129°33'1212.8
2014-Feb-15 00:33N 32°25' W 129°46'  

Dump ship's entire track history

sailing weather and tide predictions

Sanko Sincere — JNAV — position and weather